»·PEaware :: N48427 KPVF-KTVL

N48427 :: KPVF-KTVL

FLIGHT INFORMATION

Flight Status: Arrived
Operator: Privately registered:
United States
More flights under this callsign
Pilot: Dheeraj L. (18560)
Aircraft: Unknown
(P28T)
More flights by this aircraft type
Origin: KPVF Placerville
United States
Destination: KTVL Lake Tahoe
United States
More flights between these airports :: More routes between these airports
Route: +HNW V338 SWR
File this flight plan on PilotEdge
Remarks: Intend to use the ODP for departure
Altitude:
(Current/Filed)
13,000ft
Speed:
(Current/Filed)
150kts
Departed: 02-Jul-18 12:07 PM
Arrived: 02-Jul-18 12:50 PM
Distance/Time
Traveled:
37nm/0:43
Distance/Time
To Go:
Arrived

Flight Plot

Page will automatically refresh every two minutes.

Flight plan parsing failed; only flown route is shown


Map Options




Map Legend


Flown Route
Filed Route
Departure Airport
Arrival Airport
Navaid (VOR, NDB)
Fix

Horizontal Profiles

Position Reports

Time Latitude Longitude Heading Altitude Ground
Speed
02-Jul-18 11:51 38.724310 -120.754706 329 2532ft 0kts
02-Jul-18 11:52 38.724310 -120.754706 329 2532ft 0kts
02-Jul-18 11:53 38.724310 -120.754706 329 2532ft 0kts
02-Jul-18 11:54 38.724310 -120.754706 329 2532ft 0kts
02-Jul-18 11:55 38.724310 -120.754706 329 2532ft 0kts
02-Jul-18 11:56 38.724310 -120.754706 329 2532ft 0kts
02-Jul-18 11:57 38.724310 -120.754706 329 2532ft 0kts
02-Jul-18 11:58 38.724310 -120.754706 329 2532ft 0kts
02-Jul-18 11:59 38.724310 -120.754706 329 2532ft 0kts
02-Jul-18 12:00 38.724310 -120.754706 329 2532ft 0kts
02-Jul-18 12:01 38.724314 -120.754709 329 2532ft 0kts
02-Jul-18 12:02 38.724322 -120.754716 329 2532ft 0kts
02-Jul-18 12:03 38.724360 -120.754272 87 2532ft 7kts
02-Jul-18 12:03 38.726464 -120.748860 63 2532ft 15kts
02-Jul-18 12:04 38.726840 -120.747648 152 2532ft 0kts
02-Jul-18 12:05 38.726836 -120.747646 152 2532ft 0kts
02-Jul-18 12:06 38.726832 -120.747643 152 2532ft 0kts
02-Jul-18 12:07 38.721515 -120.760364 246 2727ft 94kts
02-Jul-18 12:08 38.713188 -120.791031 268 3829ft 92kts
02-Jul-18 12:09 38.708029 -120.824800 280 4721ft 102kts
02-Jul-18 12:10 38.727190 -120.849155 334 5673ft 104kts
02-Jul-18 12:11 38.741251 -120.879414 283 6809ft 103kts
02-Jul-18 12:12 38.756115 -120.887405 106 7440ft 107kts
02-Jul-18 12:13 38.748460 -120.850347 102 8563ft 109kts
02-Jul-18 12:14 38.746238 -120.811023 100 9672ft 112kts
02-Jul-18 12:15 38.728507 -120.779827 136 10110ft 115kts
02-Jul-18 12:16 38.719003 -120.746556 179 10312ft 104kts
02-Jul-18 12:17 38.700483 -120.773669 239 10370ft 104kts
02-Jul-18 12:18 38.700868 -120.799347 10 10903ft 110kts
02-Jul-18 12:19 38.718647 -120.765466 55 11588ft 118kts
02-Jul-18 12:20 38.742204 -120.735309 39 12466ft 125kts
02-Jul-18 12:21 38.768014 -120.704146 39 13102ft 133kts
02-Jul-18 12:22 38.798459 -120.677355 31 13028ft 135kts
02-Jul-18 12:23 38.831102 -120.644639 44 13073ft 153kts
02-Jul-18 12:24 38.858155 -120.601685 46 12919ft 154kts
02-Jul-18 12:25 38.891014 -120.567479 33 12998ft 146kts
02-Jul-18 12:26 38.927163 -120.541984 24 13155ft 148kts
02-Jul-18 12:27 38.962941 -120.514349 36 13088ft 151kts
02-Jul-18 12:28 38.996882 -120.482044 32 13050ft 151kts
02-Jul-18 12:29 39.029194 -120.446748 45 13031ft 153kts
02-Jul-18 12:30 39.054306 -120.402346 55 13026ft 155kts
02-Jul-18 12:31 39.082946 -120.362290 32 13106ft 152kts
02-Jul-18 12:32 39.118832 -120.334991 36 12661ft 153kts
02-Jul-18 12:33 39.149664 -120.296003 35 12523ft 154kts
02-Jul-18 12:34 39.177042 -120.253746 75 12243ft 158kts
02-Jul-18 12:35 39.191210 -120.200226 66 12028ft 158kts
02-Jul-18 12:36 39.203895 -120.146173 72 12122ft 157kts
02-Jul-18 12:37 39.214989 -120.091004 74 11982ft 157kts
02-Jul-18 12:38 39.224761 -120.037330 77 11845ft 154kts
02-Jul-18 12:39 39.232428 -119.982789 84 11710ft 155kts
02-Jul-18 12:40 39.213187 -119.939432 176 11663ft 140kts
02-Jul-18 12:41 39.175170 -119.927853 157 11678ft 145kts
02-Jul-18 12:42 39.139159 -119.920355 210 11537ft 128kts
02-Jul-18 12:43 39.103832 -119.932804 204 11019ft 133kts
02-Jul-18 12:44 39.067577 -119.944150 194 10221ft 136kts
02-Jul-18 12:45 39.030534 -119.954889 197 9184ft 142kts
02-Jul-18 12:46 38.993335 -119.965871 196 8177ft 131kts
02-Jul-18 12:47 38.958518 -119.976866 190 7400ft 122kts
02-Jul-18 12:48 38.927287 -119.985598 192 6741ft 114kts
02-Jul-18 12:49 38.898444 -119.994125 191 6261ft 75kts
02-Jul-18 12:50 38.892682 -119.996285 224 6261ft 3kts
02-Jul-18 12:51 38.892762 -119.998062 14 6261ft 0kts
02-Jul-18 12:52 38.892763 -119.998061 14 6261ft 0kts
02-Jul-18 12:53 38.892764 -119.998061 14 6261ft 0kts

Navigation Log

Ident Type
Flight plan parsing failed, navigation log unavailable